Página principal
METAR-TAF:

METAR-TAF

Aeroportos :

La Palma, Espanha

latitude: 28-37N, longitude: 017-45W, altura: 29 m

Observação actual do tempo

O boletim foi feito há 44 minutos, às 14:30 UTC
Vento 7 kt de nor-nordeste, variando entre norte e este
Temperatura 28°C
Humidade 28%
Pressão 1018 hPa
Visibilidade 10 km ou mais
sem nuvens abaixo de 1500 metros e sem cumulonimbus

METAR: GCLA 121430Z 03007KT 360V080 CAVOK 28/08 Q1018

Hora: 16:14 (15:14 UTC)

Previsão

O boletim foi feito há 1 hora e 14 minutos, às 14:00 UTC
Previsão válida de 12 às 15 UTC a 13 às 15 UTC
Vento 10 kt de nor-nordeste
Visibilidade: 9000 m
Tornando-se
de 12 às 19 UTC a 12 às 21 UTC
Vento 5 kt de nor-noroeste

TAF: GCLA 121400Z 1215/1315 03010KT 9000 NSC TX27/1314Z TN22/1306Z BECMG 1219/1221 33005KT

Observações e previsões do tempo de mais de 4000 aeroportos (mensagens METAR e TAF).

As estações disponíveis são os pontos amarelos e vermelhos sobre o mapa.

Mova o rato sobre o mapa para ver o nome da estação.

Depois clique no ponto para visualizar as observações e previsões meteorológicas.

Para alterar o mapa : clique nos botões verdes com uma cruz preta para aumentar o zoom; no botão verde com uma pitada de zoom; ou nas setas verdes para mapas adjacentes.


METAR-TAF: